sensor_id;sensor_type;location;lat;lon;timestamp;temperature;humidity
4435;DHT22;46552;52.150;8.428;2022-10-16T00:01:21;14.60;99.90
4435;DHT22;46552;52.150;8.428;2022-10-16T00:03:49;14.60;99.90
4435;DHT22;46552;52.150;8.428;2022-10-16T00:06:20;14.60;99.90
4435;DHT22;46552;52.150;8.428;2022-10-16T00:08:48;14.60;99.90
4435;DHT22;46552;52.150;8.428;2022-10-16T00:11:16;14.50;99.90
4435;DHT22;46552;52.150;8.428;2022-10-16T00:13:45;14.60;99.90
4435;DHT22;46552;52.150;8.428;2022-10-16T00:16:13;14.50;99.90
4435;DHT22;46552;52.150;8.428;2022-10-16T00:18:41;14.50;99.90
4435;DHT22;46552;52.150;8.428;2022-10-16T00:21:10;14.50;99.90
4435;DHT22;46552;52.150;8.428;2022-10-16T00:23:39;14.50;99.90
4435;DHT22;46552;52.150;8.428;2022-10-16T00:26:08;14.50;99.90
4435;DHT22;46552;52.150;8.428;2022-10-16T00:28:36;14.50;99.90
4435;DHT22;46552;52.150;8.428;2022-10-16T00:31:05;14.50;99.90
4435;DHT22;46552;52.150;8.428;2022-10-16T00:33:33;14.50;99.90
4435;DHT22;46552;52.150;8.428;2022-10-16T00:36:01;14.50;99.90
4435;DHT22;46552;52.150;8.428;2022-10-16T00:38:29;14.50;99.90
4435;DHT22;46552;52.150;8.428;2022-10-16T00:41:00;14.50;99.90
4435;DHT22;46552;52.150;8.428;2022-10-16T00:43:41;14.50;99.90
4435;DHT22;46552;52.150;8.428;2022-10-16T00:46:15;14.50;99.90
4435;DHT22;46552;52.150;8.428;2022-10-16T00:48:47;14.50;99.90
4435;DHT22;46552;52.150;8.428;2022-10-16T00:51:17;14.40;99.90
4435;DHT22;46552;52.150;8.428;2022-10-16T00:53:46;14.40;99.90
4435;DHT22;46552;52.150;8.428;2022-10-16T00:56:16;14.40;99.90
4435;DHT22;46552;52.150;8.428;2022-10-16T00:58:44;14.40;99.90
4435;DHT22;46552;52.150;8.428;2022-10-16T01:01:12;14.30;99.90
4435;DHT22;46552;52.150;8.428;2022-10-16T01:03:39;14.40;99.90
4435;DHT22;46552;52.150;8.428;2022-10-16T01:06:21;14.30;99.90
4435;DHT22;46552;52.150;8.428;2022-10-16T01:09:04;14.40;99.90
4435;DHT22;46552;52.150;8.428;2022-10-16T01:11:39;14.30;99.90
4435;DHT22;46552;52.150;8.428;2022-10-16T01:14:14;14.30;99.90
4435;DHT22;46552;52.150;8.428;2022-10-16T01:16:45;14.30;99.90
4435;DHT22;46552;52.150;8.428;2022-10-16T01:19:19;14.40;99.90
4435;DHT22;46552;52.150;8.428;2022-10-16T01:21:51;14.30;99.90
4435;DHT22;46552;52.150;8.428;2022-10-16T01:24:27;14.40;99.90
4435;DHT22;46552;52.150;8.428;2022-10-16T01:27:11;14.30;99.90
4435;DHT22;46552;52.150;8.428;2022-10-16T01:29:45;14.40;99.90
4435;DHT22;46552;52.150;8.428;2022-10-16T01:32:24;14.30;99.90
4435;DHT22;46552;52.150;8.428;2022-10-16T01:34:58;14.30;99.90
4435;DHT22;46552;52.150;8.428;2022-10-16T01:37:33;14.30;99.90
4435;DHT22;46552;52.150;8.428;2022-10-16T01:40:06;14.30;99.90
4435;DHT22;46552;52.150;8.428;2022-10-16T01:42:40;14.30;99.90
4435;DHT22;46552;52.150;8.428;2022-10-16T01:45:12;14.30;99.90
4435;DHT22;46552;52.150;8.428;2022-10-16T01:47:41;14.30;99.90
4435;DHT22;46552;52.150;8.428;2022-10-16T01:50:10;14.30;99.90
4435;DHT22;46552;52.150;8.428;2022-10-16T01:52:41;14.30;99.90
4435;DHT22;46552;52.150;8.428;2022-10-16T01:55:14;14.40;99.90
4435;DHT22;46552;52.150;8.428;2022-10-16T01:57:45;14.30;99.90
4435;DHT22;46552;52.150;8.428;2022-10-16T02:00:17;14.30;99.90
4435;DHT22;46552;52.150;8.428;2022-10-16T02:02:48;14.30;99.90
4435;DHT22;46552;52.150;8.428;2022-10-16T02:05:21;14.30;99.90
4435;DHT22;46552;52.150;8.428;2022-10-16T02:07:51;14.30;99.90
4435;DHT22;46552;52.150;8.428;2022-10-16T02:10:20;14.30;99.90
4435;DHT22;46552;52.150;8.428;2022-10-16T02:12:55;14.20;99.90
4435;DHT22;46552;52.150;8.428;2022-10-16T02:15:23;14.20;99.90
4435;DHT22;46552;52.150;8.428;2022-10-16T02:17:52;14.30;99.90
4435;DHT22;46552;52.150;8.428;2022-10-16T02:20:28;14.20;99.90
4435;DHT22;46552;52.150;8.428;2022-10-16T02:22:56;14.30;99.90
4435;DHT22;46552;52.150;8.428;2022-10-16T02:25:28;14.20;99.90
4435;DHT22;46552;52.150;8.428;2022-10-16T02:28:01;14.20;99.90
4435;DHT22;46552;52.150;8.428;2022-10-16T02:30:34;14.20;99.90
4435;DHT22;46552;52.150;8.428;2022-10-16T02:33:05;14.20;99.90
4435;DHT22;46552;52.150;8.428;2022-10-16T02:35:34;14.20;99.90
4435;DHT22;46552;52.150;8.428;2022-10-16T02:38:01;14.20;99.90
4435;DHT22;46552;52.150;8.428;2022-10-16T02:40:29;14.20;99.90
4435;DHT22;46552;52.150;8.428;2022-10-16T02:42:58;14.20;99.90
4435;DHT22;46552;52.150;8.428;2022-10-16T02:45:25;14.20;99.90
4435;DHT22;46552;52.150;8.428;2022-10-16T02:47:53;14.20;99.90
4435;DHT22;46552;52.150;8.428;2022-10-16T02:50:20;14.20;99.90
4435;DHT22;46552;52.150;8.428;2022-10-16T02:52:47;14.10;99.90
4435;DHT22;46552;52.150;8.428;2022-10-16T02:55:15;14.10;99.90
4435;DHT22;46552;52.150;8.428;2022-10-16T02:57:42;14.10;99.90
4435;DHT22;46552;52.150;8.428;2022-10-16T03:00:14;14.10;99.90
4435;DHT22;46552;52.150;8.428;2022-10-16T03:02:41;14.00;99.90
4435;DHT22;46552;52.150;8.428;2022-10-16T03:05:09;14.00;99.90
4435;DHT22;46552;52.150;8.428;2022-10-16T03:07:36;14.00;99.90
4435;DHT22;46552;52.150;8.428;2022-10-16T03:10:04;14.00;99.90
4435;DHT22;46552;52.150;8.428;2022-10-16T03:12:31;14.00;99.90
4435;DHT22;46552;52.150;8.428;2022-10-16T03:14:58;14.00;99.90
4435;DHT22;46552;52.150;8.428;2022-10-16T03:17:27;13.90;99.90
4435;DHT22;46552;52.150;8.428;2022-10-16T03:19:54;13.90;99.90
4435;DHT22;46552;52.150;8.428;2022-10-16T03:22:22;13.90;99.90
4435;DHT22;46552;52.150;8.428;2022-10-16T03:24:49;13.90;99.90
4435;DHT22;46552;52.150;8.428;2022-10-16T03:27:17;13.90;99.90
4435;DHT22;46552;52.150;8.428;2022-10-16T03:29:45;14.00;99.90
4435;DHT22;46552;52.150;8.428;2022-10-16T03:32:13;14.00;99.90
4435;DHT22;46552;52.150;8.428;2022-10-16T03:34:42;14.00;99.90
4435;DHT22;46552;52.150;8.428;2022-10-16T03:37:14;14.00;99.90
4435;DHT22;46552;52.150;8.428;2022-10-16T03:39:42;14.00;99.90
4435;DHT22;46552;52.150;8.428;2022-10-16T03:42:09;14.00;99.90
4435;DHT22;46552;52.150;8.428;2022-10-16T03:44:36;14.00;99.90
4435;DHT22;46552;52.150;8.428;2022-10-16T03:47:03;14.10;99.90
4435;DHT22;46552;52.150;8.428;2022-10-16T03:49:31;14.00;99.90
4435;DHT22;46552;52.150;8.428;2022-10-16T03:52:00;14.00;99.90
4435;DHT22;46552;52.150;8.428;2022-10-16T03:54:27;14.00;99.90
4435;DHT22;46552;52.150;8.428;2022-10-16T03:56:54;14.00;99.90
4435;DHT22;46552;52.150;8.428;2022-10-16T03:59:21;14.10;99.90
4435;DHT22;46552;52.150;8.428;2022-10-16T04:01:48;14.10;99.90
4435;DHT22;46552;52.150;8.428;2022-10-16T04:04:16;14.00;99.90
4435;DHT22;46552;52.150;8.428;2022-10-16T04:06:43;14.00;99.90
4435;DHT22;46552;52.150;8.428;2022-10-16T04:09:12;14.00;99.90
4435;DHT22;46552;52.150;8.428;2022-10-16T04:11:40;14.00;99.90
4435;DHT22;46552;52.150;8.428;2022-10-16T04:14:07;14.00;99.90
4435;DHT22;46552;52.150;8.428;2022-10-16T04:16:34;14.00;99.90
4435;DHT22;46552;52.150;8.428;2022-10-16T04:19:02;14.10;99.90
4435;DHT22;46552;52.150;8.428;2022-10-16T04:21:29;14.10;99.90
4435;DHT22;46552;52.150;8.428;2022-10-16T04:23:57;14.10;99.90
4435;DHT22;46552;52.150;8.428;2022-10-16T04:26:25;14.10;99.90
4435;DHT22;46552;52.150;8.428;2022-10-16T04:28:54;14.10;99.90
4435;DHT22;46552;52.150;8.428;2022-10-16T04:31:21;14.10;99.90
4435;DHT22;46552;52.150;8.428;2022-10-16T04:33:48;14.10;99.90
4435;DHT22;46552;52.150;8.428;2022-10-16T04:36:15;14.10;99.90
4435;DHT22;46552;52.150;8.428;2022-10-16T04:38:43;14.10;99.90
4435;DHT22;46552;52.150;8.428;2022-10-16T04:41:10;14.20;99.90
4435;DHT22;46552;52.150;8.428;2022-10-16T04:43:38;14.20;99.90
4435;DHT22;46552;52.150;8.428;2022-10-16T04:46:06;14.20;99.90
4435;DHT22;46552;52.150;8.428;2022-10-16T04:48:33;14.20;99.90
4435;DHT22;46552;52.150;8.428;2022-10-16T04:51:00;14.20;99.90
4435;DHT22;46552;52.150;8.428;2022-10-16T04:53:27;14.20;99.90
4435;DHT22;46552;52.150;8.428;2022-10-16T04:55:54;14.20;99.90
4435;DHT22;46552;52.150;8.428;2022-10-16T04:58:22;14.20;99.90
4435;DHT22;46552;52.150;8.428;2022-10-16T05:00:51;14.20;99.90
4435;DHT22;46552;52.150;8.428;2022-10-16T05:03:18;14.10;99.90
4435;DHT22;46552;52.150;8.428;2022-10-16T05:05:46;14.20;99.90
4435;DHT22;46552;52.150;8.428;2022-10-16T05:08:14;14.20;99.90
4435;DHT22;46552;52.150;8.428;2022-10-16T05:10:42;14.10;99.90
4435;DHT22;46552;52.150;8.428;2022-10-16T05:13:11;14.10;99.90
4435;DHT22;46552;52.150;8.428;2022-10-16T05:15:38;14.20;99.90
4435;DHT22;46552;52.150;8.428;2022-10-16T05:18:06;14.20;99.90
4435;DHT22;46552;52.150;8.428;2022-10-16T05:20:33;14.10;99.90
4435;DHT22;46552;52.150;8.428;2022-10-16T05:23:01;14.10;99.90
4435;DHT22;46552;52.150;8.428;2022-10-16T05:25:28;14.10;99.90
4435;DHT22;46552;52.150;8.428;2022-10-16T05:27:55;14.10;99.90
4435;DHT22;46552;52.150;8.428;2022-10-16T05:30:23;14.10;99.90
4435;DHT22;46552;52.150;8.428;2022-10-16T05:32:51;14.10;99.90
4435;DHT22;46552;52.150;8.428;2022-10-16T05:35:20;14.10;99.90
4435;DHT22;46552;52.150;8.428;2022-10-16T05:37:47;14.10;99.90
4435;DHT22;46552;52.150;8.428;2022-10-16T05:40:15;14.10;99.90
4435;DHT22;46552;52.150;8.428;2022-10-16T05:42:42;14.10;99.90
4435;DHT22;46552;52.150;8.428;2022-10-16T05:45:10;14.00;99.90
4435;DHT22;46552;52.150;8.428;2022-10-16T05:47:38;14.00;99.90
4435;DHT22;46552;52.150;8.428;2022-10-16T05:50:05;14.00;99.90
4435;DHT22;46552;52.150;8.428;2022-10-16T05:52:35;14.00;99.90
4435;DHT22;46552;52.150;8.428;2022-10-16T05:55:03;14.10;99.90
4435;DHT22;46552;52.150;8.428;2022-10-16T05:57:31;14.10;99.90
4435;DHT22;46552;52.150;8.428;2022-10-16T05:59:59;14.10;99.90
4435;DHT22;46552;52.150;8.428;2022-10-16T06:02:27;14.10;99.90
4435;DHT22;46552;52.150;8.428;2022-10-16T06:04:54;14.10;99.90
4435;DHT22;46552;52.150;8.428;2022-10-16T06:07:21;14.10;99.90
4435;DHT22;46552;52.150;8.428;2022-10-16T06:09:50;14.10;99.90
4435;DHT22;46552;52.150;8.428;2022-10-16T06:12:18;14.20;99.90
4435;DHT22;46552;52.150;8.428;2022-10-16T06:14:45;14.10;99.90
4435;DHT22;46552;52.150;8.428;2022-10-16T06:17:13;14.20;99.90
4435;DHT22;46552;52.150;8.428;2022-10-16T06:19:41;14.20;99.90
4435;DHT22;46552;52.150;8.428;2022-10-16T06:22:11;14.20;99.90
4435;DHT22;46552;52.150;8.428;2022-10-16T06:24:38;14.30;99.90
4435;DHT22;46552;52.150;8.428;2022-10-16T06:27:06;14.30;99.90
4435;DHT22;46552;52.150;8.428;2022-10-16T06:29:34;14.30;99.90
4435;DHT22;46552;52.150;8.428;2022-10-16T06:32:01;14.40;99.90
4435;DHT22;46552;52.150;8.428;2022-10-16T06:34:28;14.40;99.90
4435;DHT22;46552;52.150;8.428;2022-10-16T06:36:55;14.40;99.90
4435;DHT22;46552;52.150;8.428;2022-10-16T06:39:22;14.50;99.90
4435;DHT22;46552;52.150;8.428;2022-10-16T06:41:49;14.50;99.90
4435;DHT22;46552;52.150;8.428;2022-10-16T06:44:18;14.50;99.90
4435;DHT22;46552;52.150;8.428;2022-10-16T06:46:45;14.60;99.90
4435;DHT22;46552;52.150;8.428;2022-10-16T06:49:16;14.60;99.90
4435;DHT22;46552;52.150;8.428;2022-10-16T06:51:47;14.70;99.90
4435;DHT22;46552;52.150;8.428;2022-10-16T06:54:15;14.70;99.90
4435;DHT22;46552;52.150;8.428;2022-10-16T06:56:43;14.70;99.90
4435;DHT22;46552;52.150;8.428;2022-10-16T06:59:11;14.80;99.90
4435;DHT22;46552;52.150;8.428;2022-10-16T07:01:40;14.90;99.90
4435;DHT22;46552;52.150;8.428;2022-10-16T07:04:07;14.90;99.90
4435;DHT22;46552;52.150;8.428;2022-10-16T07:06:34;15.00;99.90
4435;DHT22;46552;52.150;8.428;2022-10-16T07:09:03;15.10;99.90
4435;DHT22;46552;52.150;8.428;2022-10-16T07:11:31;15.20;99.90
4435;DHT22;46552;52.150;8.428;2022-10-16T07:13:59;15.30;99.90
4435;DHT22;46552;52.150;8.428;2022-10-16T07:16:27;15.50;99.90
4435;DHT22;46552;52.150;8.428;2022-10-16T07:18:56;15.70;99.90
4435;DHT22;46552;52.150;8.428;2022-10-16T07:21:25;15.70;99.90
4435;DHT22;46552;52.150;8.428;2022-10-16T07:23:55;16.00;99.90
4435;DHT22;46552;52.150;8.428;2022-10-16T07:26:23;16.20;99.90
4435;DHT22;46552;52.150;8.428;2022-10-16T07:28:51;16.40;99.90
4435;DHT22;46552;52.150;8.428;2022-10-16T07:31:20;16.70;99.90
4435;DHT22;46552;52.150;8.428;2022-10-16T07:33:48;17.20;99.90
4435;DHT22;46552;52.150;8.428;2022-10-16T07:36:19;17.40;99.90
4435;DHT22;46552;52.150;8.428;2022-10-16T07:38:47;17.60;99.90
4435;DHT22;46552;52.150;8.428;2022-10-16T07:41:16;18.20;99.90
4435;DHT22;46552;52.150;8.428;2022-10-16T07:43:46;18.60;99.90
4435;DHT22;46552;52.150;8.428;2022-10-16T07:46:13;18.70;99.90
4435;DHT22;46552;52.150;8.428;2022-10-16T07:48:42;18.60;99.90
4435;DHT22;46552;52.150;8.428;2022-10-16T07:51:12;18.40;99.90
4435;DHT22;46552;52.150;8.428;2022-10-16T07:53:42;18.90;99.90
4435;DHT22;46552;52.150;8.428;2022-10-16T07:56:11;19.20;99.90
4435;DHT22;46552;52.150;8.428;2022-10-16T07:58:39;19.50;99.90
4435;DHT22;46552;52.150;8.428;2022-10-16T08:01:08;20.40;99.90
4435;DHT22;46552;52.150;8.428;2022-10-16T08:03:36;21.40;99.90
4435;DHT22;46552;52.150;8.428;2022-10-16T08:06:04;22.40;99.90
4435;DHT22;46552;52.150;8.428;2022-10-16T08:08:32;23.40;99.40
4435;DHT22;46552;52.150;8.428;2022-10-16T08:11:01;23.70;98.70
4435;DHT22;46552;52.150;8.428;2022-10-16T08:13:29;24.20;97.40
4435;DHT22;46552;52.150;8.428;2022-10-16T08:15:56;24.10;97.50
4435;DHT22;46552;52.150;8.428;2022-10-16T08:18:23;23.10;97.20
4435;DHT22;46552;52.150;8.428;2022-10-16T08:20:55;23.10;97.60
4435;DHT22;46552;52.150;8.428;2022-10-16T08:23:22;22.60;97.60
4435;DHT22;46552;52.150;8.428;2022-10-16T08:25:51;22.30;98.30
4435;DHT22;46552;52.150;8.428;2022-10-16T08:28:22;22.10;98.60
4435;DHT22;46552;52.150;8.428;2022-10-16T08:30:50;22.00;98.40
4435;DHT22;46552;52.150;8.428;2022-10-16T08:33:17;22.20;98.40
4435;DHT22;46552;52.150;8.428;2022-10-16T08:35:50;22.70;98.10
4435;DHT22;46552;52.150;8.428;2022-10-16T08:38:19;23.90;96.70
4435;DHT22;46552;52.150;8.428;2022-10-16T08:40:46;24.70;96.10
4435;DHT22;46552;52.150;8.428;2022-10-16T08:43:39;25.30;95.10
4435;DHT22;46552;52.150;8.428;2022-10-16T08:46:25;25.90;93.40
4435;DHT22;46552;52.150;8.428;2022-10-16T08:48:57;26.50;92.20
4435;DHT22;46552;52.150;8.428;2022-10-16T08:51:28;26.80;91.70
4435;DHT22;46552;52.150;8.428;2022-10-16T08:53:57;26.50;92.00
4435;DHT22;46552;52.150;8.428;2022-10-16T08:56:26;25.60;92.60
4435;DHT22;46552;52.150;8.428;2022-10-16T08:58:54;24.80;93.20
4435;DHT22;46552;52.150;8.428;2022-10-16T09:01:22;23.90;94.10
4435;DHT22;46552;52.150;8.428;2022-10-16T09:04:07;23.30;94.50
4435;DHT22;46552;52.150;8.428;2022-10-16T09:06:45;22.80;94.90
4435;DHT22;46552;52.150;8.428;2022-10-16T09:09:43;22.30;95.50
4435;DHT22;46552;52.150;8.428;2022-10-16T09:12:18;22.00;95.80
4435;DHT22;46552;52.150;8.428;2022-10-16T09:14:56;21.70;96.30
4435;DHT22;46552;52.150;8.428;2022-10-16T09:17:37;22.30;96.20
4435;DHT22;46552;52.150;8.428;2022-10-16T09:20:18;23.40;95.20
4435;DHT22;46552;52.150;8.428;2022-10-16T09:22:45;24.00;94.50
4435;DHT22;46552;52.150;8.428;2022-10-16T09:25:14;24.30;93.90
4435;DHT22;46552;52.150;8.428;2022-10-16T09:27:44;25.10;93.10
4435;DHT22;46552;52.150;8.428;2022-10-16T09:30:17;26.20;92.10
4435;DHT22;46552;52.150;8.428;2022-10-16T09:32:48;26.70;90.40
4435;DHT22;46552;52.150;8.428;2022-10-16T09:35:18;27.10;90.10
4435;DHT22;46552;52.150;8.428;2022-10-16T09:37:48;27.00;88.30
4435;DHT22;46552;52.150;8.428;2022-10-16T09:40:25;27.10;88.10
4435;DHT22;46552;52.150;8.428;2022-10-16T09:42:57;27.00;86.00
4435;DHT22;46552;52.150;8.428;2022-10-16T09:45:26;26.90;86.10
4435;DHT22;46552;52.150;8.428;2022-10-16T09:47:54;27.10;86.80
4435;DHT22;46552;52.150;8.428;2022-10-16T09:50:24;28.00;85.30
4435;DHT22;46552;52.150;8.428;2022-10-16T09:53:03;28.60;82.40
4435;DHT22;46552;52.150;8.428;2022-10-16T09:55:32;29.30;80.50
4435;DHT22;46552;52.150;8.428;2022-10-16T09:57:59;29.80;78.60
4435;DHT22;46552;52.150;8.428;2022-10-16T10:00:28;30.00;76.80
4435;DHT22;46552;52.150;8.428;2022-10-16T10:02:55;30.50;74.80
4435;DHT22;46552;52.150;8.428;2022-10-16T10:05:24;30.90;74.50
4435;DHT22;46552;52.150;8.428;2022-10-16T10:07:55;31.10;71.50
4435;DHT22;46552;52.150;8.428;2022-10-16T10:10:25;30.80;71.60
4435;DHT22;46552;52.150;8.428;2022-10-16T10:12:53;30.40;71.20
4435;DHT22;46552;52.150;8.428;2022-10-16T10:15:21;29.60;71.70
4435;DHT22;46552;52.150;8.428;2022-10-16T10:17:53;28.70;72.50
4435;DHT22;46552;52.150;8.428;2022-10-16T10:20:26;27.90;72.30
4435;DHT22;46552;52.150;8.428;2022-10-16T10:22:54;28.20;73.30
4435;DHT22;46552;52.150;8.428;2022-10-16T10:25:42;27.70;73.80
4435;DHT22;46552;52.150;8.428;2022-10-16T10:28:30;28.00;73.00
4435;DHT22;46552;52.150;8.428;2022-10-16T10:31:04;28.10;72.10
4435;DHT22;46552;52.150;8.428;2022-10-16T10:33:41;27.40;73.60
4435;DHT22;46552;52.150;8.428;2022-10-16T10:36:21;26.30;75.20
4435;DHT22;46552;52.150;8.428;2022-10-16T10:38:52;26.20;76.30
4435;DHT22;46552;52.150;8.428;2022-10-16T10:41:55;25.80;77.40
4435;DHT22;46552;52.150;8.428;2022-10-16T10:44:37;25.10;79.10
4435;DHT22;46552;52.150;8.428;2022-10-16T10:47:10;24.50;79.50
4435;DHT22;46552;52.150;8.428;2022-10-16T10:49:51;24.00;81.50
4435;DHT22;46552;52.150;8.428;2022-10-16T10:52:39;23.70;82.10
4435;DHT22;46552;52.150;8.428;2022-10-16T10:55:16;23.10;83.70
4435;DHT22;46552;52.150;8.428;2022-10-16T10:58:01;23.10;84.20
4435;DHT22;46552;52.150;8.428;2022-10-16T11:00:42;24.00;84.00
4435;DHT22;46552;52.150;8.428;2022-10-16T11:03:37;25.30;81.70
4435;DHT22;46552;52.150;8.428;2022-10-16T11:06:13;26.80;77.70
4435;DHT22;46552;52.150;8.428;2022-10-16T11:08:46;27.70;74.10
4435;DHT22;46552;52.150;8.428;2022-10-16T11:11:20;27.50;73.80
4435;DHT22;46552;52.150;8.428;2022-10-16T11:13:56;27.30;73.60
4435;DHT22;46552;52.150;8.428;2022-10-16T11:16:28;27.70;73.00
4435;DHT22;46552;52.150;8.428;2022-10-16T11:18:59;29.20;67.90
4435;DHT22;46552;52.150;8.428;2022-10-16T11:21:35;29.50;69.40
4435;DHT22;46552;52.150;8.428;2022-10-16T11:24:09;30.00;67.40
4435;DHT22;46552;52.150;8.428;2022-10-16T11:26:41;30.30;66.30
4435;DHT22;46552;52.150;8.428;2022-10-16T11:29:15;30.30;64.80
4435;DHT22;46552;52.150;8.428;2022-10-16T11:31:47;30.30;65.70
4435;DHT22;46552;52.150;8.428;2022-10-16T11:34:22;30.20;66.00
4435;DHT22;46552;52.150;8.428;2022-10-16T11:36:57;29.80;66.40
4435;DHT22;46552;52.150;8.428;2022-10-16T11:39:28;29.10;66.40
4435;DHT22;46552;52.150;8.428;2022-10-16T11:41:59;27.80;68.10
4435;DHT22;46552;52.150;8.428;2022-10-16T11:44:40;27.00;70.00
4435;DHT22;46552;52.150;8.428;2022-10-16T11:47:27;26.40;70.80
4435;DHT22;46552;52.150;8.428;2022-10-16T11:50:00;25.90;72.40
4435;DHT22;46552;52.150;8.428;2022-10-16T11:52:36;25.60;73.20
4435;DHT22;46552;52.150;8.428;2022-10-16T11:55:15;25.30;74.10
4435;DHT22;46552;52.150;8.428;2022-10-16T11:57:48;25.00;74.00
4435;DHT22;46552;52.150;8.428;2022-10-16T12:00:21;25.00;74.50
4435;DHT22;46552;52.150;8.428;2022-10-16T12:02:57;25.10;74.30
4435;DHT22;46552;52.150;8.428;2022-10-16T12:05:31;25.10;74.90
4435;DHT22;46552;52.150;8.428;2022-10-16T12:08:08;25.10;75.30
4435;DHT22;46552;52.150;8.428;2022-10-16T12:10:37;25.10;75.20
4435;DHT22;46552;52.150;8.428;2022-10-16T12:15:47;25.20;75.30
4435;DHT22;46552;52.150;8.428;2022-10-16T12:18:21;25.10;75.70
4435;DHT22;46552;52.150;8.428;2022-10-16T12:20:55;24.90;73.90
4435;DHT22;46552;52.150;8.428;2022-10-16T12:23:27;24.60;75.50
4435;DHT22;46552;52.150;8.428;2022-10-16T12:25:58;24.30;76.40
4435;DHT22;46552;52.150;8.428;2022-10-16T12:28:27;24.00;76.50
4435;DHT22;46552;52.150;8.428;2022-10-16T12:30:57;23.60;77.30
4435;DHT22;46552;52.150;8.428;2022-10-16T12:33:26;23.40;78.00
4435;DHT22;46552;52.150;8.428;2022-10-16T12:35:55;23.30;79.00
4435;DHT22;46552;52.150;8.428;2022-10-16T12:38:30;23.10;79.20
4435;DHT22;46552;52.150;8.428;2022-10-16T12:41:01;22.90;79.40
4435;DHT22;46552;52.150;8.428;2022-10-16T12:43:40;22.70;79.40
4435;DHT22;46552;52.150;8.428;2022-10-16T12:46:26;22.50;79.50
4435;DHT22;46552;52.150;8.428;2022-10-16T12:49:06;22.50;79.60
4435;DHT22;46552;52.150;8.428;2022-10-16T12:51:36;22.40;80.30
4435;DHT22;46552;52.150;8.428;2022-10-16T12:54:12;22.20;80.20
4435;DHT22;46552;52.150;8.428;2022-10-16T12:56:46;22.00;80.20
4435;DHT22;46552;52.150;8.428;2022-10-16T12:59:22;21.90;80.90
4435;DHT22;46552;52.150;8.428;2022-10-16T13:02:11;21.90;81.00
4435;DHT22;46552;52.150;8.428;2022-10-16T13:04:51;22.00;81.00
4435;DHT22;46552;52.150;8.428;2022-10-16T13:07:40;22.10;81.20
4435;DHT22;46552;52.150;8.428;2022-10-16T13:10:19;22.20;80.60
4435;DHT22;46552;52.150;8.428;2022-10-16T13:13:09;22.40;80.70
4435;DHT22;46552;52.150;8.428;2022-10-16T13:16:01;22.60;80.10
4435;DHT22;46552;52.150;8.428;2022-10-16T13:18:38;23.00;79.10
4435;DHT22;46552;52.150;8.428;2022-10-16T13:21:25;22.90;79.50
4435;DHT22;46552;52.150;8.428;2022-10-16T13:24:01;23.00;79.00
4435;DHT22;46552;52.150;8.428;2022-10-16T13:26:37;23.20;79.30
4435;DHT22;46552;52.150;8.428;2022-10-16T13:29:06;23.30;79.50
4435;DHT22;46552;52.150;8.428;2022-10-16T13:31:36;23.50;79.20
4435;DHT22;46552;52.150;8.428;2022-10-16T13:34:06;23.50;78.70
4435;DHT22;46552;52.150;8.428;2022-10-16T13:36:44;23.50;79.10
4435;DHT22;46552;52.150;8.428;2022-10-16T13:39:14;23.50;79.40
4435;DHT22;46552;52.150;8.428;2022-10-16T13:41:44;23.60;79.60
4435;DHT22;46552;52.150;8.428;2022-10-16T13:44:15;23.70;79.50
4435;DHT22;46552;52.150;8.428;2022-10-16T13:46:42;23.50;79.10
4435;DHT22;46552;52.150;8.428;2022-10-16T13:49:15;23.50;79.20
4435;DHT22;46552;52.150;8.428;2022-10-16T13:51:54;23.50;79.00
4435;DHT22;46552;52.150;8.428;2022-10-16T13:54:21;23.50;78.60
4435;DHT22;46552;52.150;8.428;2022-10-16T13:56:49;23.50;79.10
4435;DHT22;46552;52.150;8.428;2022-10-16T13:59:24;23.40;79.10
4435;DHT22;46552;52.150;8.428;2022-10-16T14:01:54;23.50;79.80
4435;DHT22;46552;52.150;8.428;2022-10-16T14:04:22;23.60;79.70
4435;DHT22;46552;52.150;8.428;2022-10-16T14:06:51;23.60;79.80
4435;DHT22;46552;52.150;8.428;2022-10-16T14:09:23;23.50;79.80
4435;DHT22;46552;52.150;8.428;2022-10-16T14:11:55;23.50;79.50
4435;DHT22;46552;52.150;8.428;2022-10-16T14:14:25;23.50;79.80
4435;DHT22;46552;52.150;8.428;2022-10-16T14:16:53;23.50;79.80
4435;DHT22;46552;52.150;8.428;2022-10-16T14:19:23;23.40;79.30
4435;DHT22;46552;52.150;8.428;2022-10-16T14:21:51;23.30;80.10
4435;DHT22;46552;52.150;8.428;2022-10-16T14:24:27;23.40;80.20
4435;DHT22;46552;52.150;8.428;2022-10-16T14:26:58;23.30;80.50
4435;DHT22;46552;52.150;8.428;2022-10-16T14:29:27;23.40;80.90
4435;DHT22;46552;52.150;8.428;2022-10-16T14:31:56;23.30;80.70
4435;DHT22;46552;52.150;8.428;2022-10-16T14:34:30;23.30;80.80
4435;DHT22;46552;52.150;8.428;2022-10-16T14:36:59;23.30;80.90
4435;DHT22;46552;52.150;8.428;2022-10-16T14:39:30;23.20;80.80
4435;DHT22;46552;52.150;8.428;2022-10-16T14:41:59;23.30;81.20
4435;DHT22;46552;52.150;8.428;2022-10-16T14:44:29;23.20;81.50
4435;DHT22;46552;52.150;8.428;2022-10-16T14:46:58;23.20;82.00
4435;DHT22;46552;52.150;8.428;2022-10-16T14:49:26;23.10;82.10
4435;DHT22;46552;52.150;8.428;2022-10-16T14:51:54;23.10;82.30
4435;DHT22;46552;52.150;8.428;2022-10-16T14:54:21;23.10;82.50
4435;DHT22;46552;52.150;8.428;2022-10-16T14:56:52;23.10;82.40
4435;DHT22;46552;52.150;8.428;2022-10-16T14:59:27;23.10;82.40
4435;DHT22;46552;52.150;8.428;2022-10-16T15:01:54;23.00;82.30
4435;DHT22;46552;52.150;8.428;2022-10-16T15:04:21;22.90;82.50
4435;DHT22;46552;52.150;8.428;2022-10-16T15:06:49;22.80;82.70
4435;DHT22;46552;52.150;8.428;2022-10-16T15:09:16;22.70;83.00
4435;DHT22;46552;52.150;8.428;2022-10-16T15:11:43;22.60;83.30
4435;DHT22;46552;52.150;8.428;2022-10-16T15:14:12;22.40;83.80
4435;DHT22;46552;52.150;8.428;2022-10-16T15:16:42;22.40;84.30
4435;DHT22;46552;52.150;8.428;2022-10-16T15:19:09;22.20;84.20
4435;DHT22;46552;52.150;8.428;2022-10-16T15:21:36;22.20;84.80
4435;DHT22;46552;52.150;8.428;2022-10-16T15:24:09;22.00;85.00
4435;DHT22;46552;52.150;8.428;2022-10-16T15:26:38;21.90;85.70
4435;DHT22;46552;52.150;8.428;2022-10-16T15:29:06;21.70;86.10
4435;DHT22;46552;52.150;8.428;2022-10-16T15:31:43;21.60;86.70
4435;DHT22;46552;52.150;8.428;2022-10-16T15:34:13;21.50;87.40
4435;DHT22;46552;52.150;8.428;2022-10-16T15:36:40;21.40;87.50
4435;DHT22;46552;52.150;8.428;2022-10-16T15:39:13;21.30;87.70
4435;DHT22;46552;52.150;8.428;2022-10-16T15:41:41;21.20;88.10
4435;DHT22;46552;52.150;8.428;2022-10-16T15:44:08;21.10;88.40
4435;DHT22;46552;52.150;8.428;2022-10-16T15:46:36;21.00;88.70
4435;DHT22;46552;52.150;8.428;2022-10-16T15:49:05;20.90;89.10
4435;DHT22;46552;52.150;8.428;2022-10-16T15:51:32;20.80;89.70
4435;DHT22;46552;52.150;8.428;2022-10-16T15:53:59;20.70;90.10
4435;DHT22;46552;52.150;8.428;2022-10-16T15:56:28;20.50;90.30
4435;DHT22;46552;52.150;8.428;2022-10-16T15:58:56;20.40;90.70
4435;DHT22;46552;52.150;8.428;2022-10-16T16:01:25;20.30;91.00
4435;DHT22;46552;52.150;8.428;2022-10-16T16:03:53;20.20;91.30
4435;DHT22;46552;52.150;8.428;2022-10-16T16:06:23;20.20;91.50
4435;DHT22;46552;52.150;8.428;2022-10-16T16:08:51;20.10;92.00
4435;DHT22;46552;52.150;8.428;2022-10-16T16:11:19;20.00;92.20